ZLG weather

CLOSED La Güera Airport
La Güera, Western Sahara

Public forecast

Using degrees Celsius for public forecast. Weather courtesy of forecast.io.

METAR (pilot weather report)

Closest report is Nouadhibou International Airport, 6.3 nm (11.7 km) NNE. Retrieved 2019/09/22 06:00 UTC (2 hours ago):

GQPP 220600Z 02012KT 8000 NSC 22/17 Q1013 NOSIG

TAF (pilot weather forecast)

Closest forecast is Nouadhibou International Airport, 6.3 nm (11.7 km) NNE. Retrieved 2019/09/22 06:53 UTC (47 minutes ago):

TAF GQPP 220500Z 2206/2306 35012KT 7000 NSC